Time;durP1;ratioP1;P1;durP2;ratioP2;P2;SDS_P1;SDS_P2;PMS_P1;PMS_P2;Temp;Humidity;BMP_temperature;BMP_pressure;BME280_temperature;BME280_humidity;BME280_pressure;Samples;Min_cycle;Max_cycle;Signal;HPM_P1;HPM_P2
2022/03/06 00:02:12;;;;;;;12.77;11.25;;;;;;;;;;5100109;28;20183;-61
2022/03/06 00:04:37;;;;;;;16.40;12.50;;;;;;;;;;5102371;28;20187;-61
2022/03/06 00:07:03;;;;;;;16.42;13.18;;;;;;;;;;5101105;28;20239;-61
2022/03/06 00:09:28;;;;;;;15.48;12.90;;;;;;;;;;5092152;28;20184;-61
2022/03/06 00:11:54;;;;;;;14.27;11.88;;;;;;;;;;5095615;28;20594;-61
2022/03/06 00:14:19;;;;;;;17.17;13.25;;;;;;;;;;5097611;28;20549;-61
2022/03/06 00:16:45;;;;;;;16.77;13.50;;;;;;;;;;5098437;28;20258;-60
2022/03/06 00:19:11;;;;;;;15.85;12.77;;;;;;;;;;5090475;28;20326;-61
2022/03/06 00:21:36;;;;;;;14.50;11.77;;;;;;;;;;5098063;28;20279;-61
2022/03/06 00:24:02;;;;;;;13.05;11.20;;;;;;;;;;5099474;28;20240;-61
2022/03/06 00:26:27;;;;;;;15.52;12.95;;;;;;;;;;5102677;28;20263;-60
2022/03/06 00:28:53;;;;;;;12.98;10.95;;;;;;;;;;5099214;28;21032;-61
2022/03/06 00:31:18;;;;;;;17.02;12.15;;;;;;;;;;5094697;28;20196;-61
2022/03/06 00:33:43;;;;;;;12.35;10.82;;;;;;;;;;5099149;28;20245;-61
2022/03/06 00:36:09;;;;;;;13.63;10.88;;;;;;;;;;5096265;28;20180;-61
2022/03/06 00:38:34;;;;;;;12.55;10.45;;;;;;;;;;5098610;28;20277;-61
2022/03/06 00:40:59;;;;;;;12.95;11.00;;;;;;;;;;5079722;28;20215;-61
2022/03/06 00:43:25;;;;;;;11.68;10.00;;;;;;;;;;5076979;28;20189;-61
2022/03/06 00:45:50;;;;;;;10.70;9.60;;;;;;;;;;5082810;28;20222;-60
2022/03/06 00:48:15;;;;;;;14.57;11.77;;;;;;;;;;5094407;28;20207;-61
2022/03/06 00:50:41;;;;;;;12.10;10.85;;;;;;;;;;5103812;28;20710;-61
2022/03/06 00:53:06;;;;;;;21.65;15.75;;;;;;;;;;5102077;27;20184;-61
2022/03/06 00:55:31;;;;;;;20.08;15.23;;;;;;;;;;5098434;28;20200;-62
2022/03/06 00:57:57;;;;;;;15.07;11.25;;;;;;;;;;5104861;28;20181;-61
2022/03/06 01:00:22;;;;;;;12.38;10.10;;;;;;;;;;5090034;28;20661;-61
2022/03/06 01:02:47;;;;;;;14.57;11.75;;;;;;;;;;5077240;28;20994;-62
2022/03/06 01:05:13;;;;;;;13.95;11.32;;;;;;;;;;5078840;28;20211;-61
2022/03/06 01:07:38;;;;;;;17.38;12.30;;;;;;;;;;5091712;28;20202;-61
2022/03/06 01:10:04;;;;;;;15.95;11.98;;;;;;;;;;5104585;28;20187;-61
2022/03/06 01:12:29;;;;;;;12.15;10.65;;;;;;;;;;5095496;28;20314;-62
2022/03/06 01:14:54;;;;;;;12.63;10.77;;;;;;;;;;5093874;28;20184;-62
2022/03/06 01:17:19;;;;;;;12.52;10.35;;;;;;;;;;5093637;28;20176;-61
2022/03/06 01:19:45;;;;;;;13.13;10.00;;;;;;;;;;5097862;28;20671;-61
2022/03/06 01:22:10;;;;;;;12.95;10.70;;;;;;;;;;5089045;28;20281;-62
2022/03/06 01:24:35;;;;;;;11.13;8.95;;;;;;;;;;5077190;28;20176;-61
2022/03/06 01:33:07;;;;;;;9.63;8.32;;;;;;;;;;5095742;28;20324;-61
2022/03/06 01:35:32;;;;;;;9.88;8.50;;;;;;;;;;5096075;28;20211;-61
2022/03/06 01:37:58;;;;;;;7.72;6.95;;;;;;;;;;5103845;28;20194;-61
2022/03/06 01:40:23;;;;;;;10.07;7.75;;;;;;;;;;5100004;28;20180;-61
2022/03/06 01:42:49;;;;;;;9.07;7.57;;;;;;;;;;5088186;28;20180;-61
2022/03/06 01:45:15;;;;;;;7.55;6.80;;;;;;;;;;5076416;28;20188;-61
2022/03/06 01:47:42;;;;;;;6.93;6.20;;;;;;;;;;5098575;28;20179;-61
2022/03/06 01:50:27;;;;;;;6.65;6.00;;;;;;;;;;5105836;28;20196;-61
2022/03/06 01:52:53;;;;;;;7.15;6.45;;;;;;;;;;5088796;28;20220;-61
2022/03/06 01:55:20;;;;;;;6.53;5.85;;;;;;;;;;5097865;28;20228;-61
2022/03/06 01:57:45;;;;;;;6.22;5.50;;;;;;;;;;5102982;28;20262;-61
2022/03/06 02:00:12;;;;;;;7.78;6.90;;;;;;;;;;5106991;28;20274;-61
2022/03/06 02:02:38;;;;;;;9.20;7.07;;;;;;;;;;5107054;28;20183;-61
2022/03/06 02:05:04;;;;;;;6.72;5.93;;;;;;;;;;5096956;28;20187;-61
2022/03/06 02:07:29;;;;;;;6.47;5.88;;;;;;;;;;5097501;28;20171;-61
2022/03/06 02:09:56;;;;;;;7.47;6.78;;;;;;;;;;5100144;28;20179;-61
2022/03/06 02:12:21;;;;;;;6.07;5.53;;;;;;;;;;5104326;28;20195;-61
2022/03/06 02:14:47;;;;;;;7.65;6.45;;;;;;;;;;5097276;28;20195;-61
2022/03/06 02:17:13;;;;;;;7.05;6.35;;;;;;;;;;5097724;28;20199;-61
2022/03/06 02:19:51;;;;;;;8.10;6.88;;;;;;;;;;5102679;28;20211;-61
2022/03/06 02:22:16;;;;;;;7.20;6.50;;;;;;;;;;5101403;28;20167;-62
2022/03/06 02:24:41;;;;;;;7.45;6.75;;;;;;;;;;5097886;28;20891;-61
2022/03/06 02:27:07;;;;;;;9.60;7.32;;;;;;;;;;5095792;28;20172;-61
2022/03/06 02:29:32;;;;;;;9.57;8.20;;;;;;;;;;5097868;28;20207;-61
2022/03/06 02:31:59;;;;;;;10.02;8.18;;;;;;;;;;5095640;28;20203;-60
2022/03/06 02:34:24;;;;;;;11.85;9.27;;;;;;;;;;5091105;28;20302;-61
2022/03/06 02:36:49;;;;;;;12.65;10.15;;;;;;;;;;5094749;28;20701;-61
2022/03/06 02:39:15;;;;;;;13.20;10.43;;;;;;;;;;5090234;28;20194;-61
2022/03/06 02:41:40;;;;;;;15.73;11.68;;;;;;;;;;5091561;28;20669;-61
2022/03/06 02:44:05;;;;;;;12.70;10.38;;;;;;;;;;5095064;28;20176;-60
2022/03/06 02:46:31;;;;;;;13.15;10.45;;;;;;;;;;5084313;28;20279;-61
2022/03/06 02:48:56;;;;;;;14.60;11.65;;;;;;;;;;5095762;28;20616;-60
2022/03/06 02:51:21;;;;;;;16.42;12.80;;;;;;;;;;5097272;28;20208;-60
2022/03/06 02:53:46;;;;;;;22.40;15.60;;;;;;;;;;5100870;28;20255;-60
2022/03/06 02:56:12;;;;;;;19.92;13.98;;;;;;;;;;5093903;28;20187;-61
2022/03/06 02:58:39;;;;;;;20.77;14.27;;;;;;;;;;5093275;28;20186;-60
2022/03/06 03:01:04;;;;;;;19.25;13.30;;;;;;;;;;5102449;28;20195;-60
2022/03/06 03:03:37;;;;;;;14.38;11.85;;;;;;;;;;5095013;28;20181;-60
2022/03/06 03:12:08;;;;;;;13.00;9.85;;;;;;;;;;5097843;28;20276;-60
2022/03/06 03:14:35;;;;;;;12.95;9.60;;;;;;;;;;5105966;28;20603;-60
2022/03/06 03:17:01;;;;;;;13.43;11.05;;;;;;;;;;5094643;28;20265;-61
2022/03/06 03:19:26;;;;;;;14.57;11.63;;;;;;;;;;5095939;28;20181;-60
2022/03/06 03:21:52;;;;;;;15.40;11.70;;;;;;;;;;5093291;28;20180;-61
2022/03/06 03:24:17;;;;;;;16.80;12.55;;;;;;;;;;5104659;28;20270;-61
2022/03/06 03:26:42;;;;;;;15.02;11.77;;;;;;;;;;5105236;28;21042;-61
2022/03/06 03:29:07;;;;;;;16.48;12.27;;;;;;;;;;5084383;28;20944;-61
2022/03/06 03:40:41;;;;;;;18.23;13.43;;;;;;;;;;5097248;28;20230;-61
2022/03/06 03:43:07;;;;;;;19.33;13.68;;;;;;;;;;5101890;28;20560;-61
2022/03/06 03:45:32;;;;;;;17.13;12.30;;;;;;;;;;5103980;28;20181;-61
2022/03/06 03:47:57;;;;;;;17.65;12.73;;;;;;;;;;5096784;28;20247;-61
2022/03/06 03:50:23;;;;;;;17.88;13.45;;;;;;;;;;5082844;28;20211;-61
2022/03/06 03:52:48;;;;;;;17.10;12.85;;;;;;;;;;5078830;28;20212;-61
2022/03/06 03:55:13;;;;;;;18.13;13.40;;;;;;;;;;5086801;28;20176;-61
2022/03/06 03:57:38;;;;;;;16.83;12.98;;;;;;;;;;5097466;28;20612;-61
2022/03/06 04:00:05;;;;;;;22.40;13.98;;;;;;;;;;5097539;28;20208;-60
2022/03/06 04:02:30;;;;;;;22.02;13.07;;;;;;;;;;5102910;28;20657;-61
2022/03/06 04:04:55;;;;;;;16.45;12.25;;;;;;;;;;5095255;28;20238;-61
2022/03/06 04:07:20;;;;;;;18.38;13.63;;;;;;;;;;5099975;28;20171;-61
2022/03/06 04:09:46;;;;;;;15.70;11.82;;;;;;;;;;5091810;28;20237;-61
2022/03/06 04:12:11;;;;;;;16.38;12.77;;;;;;;;;;5077703;28;20887;-61
2022/03/06 04:14:36;;;;;;;16.23;11.95;;;;;;;;;;5099445;28;20180;-61
2022/03/06 04:17:02;;;;;;;15.05;11.68;;;;;;;;;;5099343;28;20173;-61
2022/03/06 04:19:27;;;;;;;14.57;11.48;;;;;;;;;;5096716;28;20175;-61
2022/03/06 04:21:52;;;;;;;13.68;10.75;;;;;;;;;;5095515;28;20687;-61
2022/03/06 04:24:18;;;;;;;13.35;11.05;;;;;;;;;;5090018;28;20402;-61
2022/03/06 04:26:43;;;;;;;16.00;11.82;;;;;;;;;;5099745;28;20172;-61
2022/03/06 04:29:08;;;;;;;13.38;11.00;;;;;;;;;;5096553;28;20629;-61
2022/03/06 04:31:34;;;;;;;13.65;11.10;;;;;;;;;;5100141;28;20203;-61
2022/03/06 04:34:00;;;;;;;16.60;11.23;;;;;;;;;;5097514;28;20270;-61
2022/03/06 04:36:25;;;;;;;17.10;12.18;;;;;;;;;;5100496;28;20211;-62
2022/03/06 04:38:50;;;;;;;15.68;12.15;;;;;;;;;;5101325;28;20664;-61
2022/03/06 04:41:16;;;;;;;12.77;10.57;;;;;;;;;;5103437;28;20583;-61
2022/03/06 04:43:41;;;;;;;12.88;11.43;;;;;;;;;;5097175;28;20582;-61
2022/03/06 04:46:07;;;;;;;11.85;10.35;;;;;;;;;;5099344;28;20568;-61
2022/03/06 04:48:32;;;;;;;12.98;10.32;;;;;;;;;;5096383;28;20176;-61
2022/03/06 04:50:57;;;;;;;17.38;12.95;;;;;;;;;;5098786;28;20192;-61
2022/03/06 04:53:22;;;;;;;14.82;11.38;;;;;;;;;;5081006;28;20176;-61
2022/03/06 04:55:48;;;;;;;15.40;11.55;;;;;;;;;;5078076;28;20761;-61
2022/03/06 04:58:13;;;;;;;14.32;11.65;;;;;;;;;;5084546;28;20181;-61
2022/03/06 05:00:38;;;;;;;12.73;10.35;;;;;;;;;;5100387;28;20707;-61
2022/03/06 05:03:04;;;;;;;13.88;10.30;;;;;;;;;;5098948;28;20175;-61
2022/03/06 05:05:29;;;;;;;11.98;9.18;;;;;;;;;;5092007;28;20665;-61
2022/03/06 05:07:54;;;;;;;12.95;10.43;;;;;;;;;;5101742;28;20204;-61
2022/03/06 05:10:20;;;;;;;13.27;9.40;;;;;;;;;;5106460;28;20644;-61
2022/03/06 05:12:45;;;;;;;16.20;10.80;;;;;;;;;;5097419;28;20274;-61
2022/03/06 05:15:12;;;;;;;12.80;10.45;;;;;;;;;;5096625;28;20867;-61
2022/03/06 05:17:38;;;;;;;15.05;11.18;;;;;;;;;;5097027;28;20176;-61
2022/03/06 05:20:04;;;;;;;14.75;11.15;;;;;;;;;;5102180;28;20171;-61
2022/03/06 05:22:30;;;;;;;13.40;9.68;;;;;;;;;;5092192;28;20259;-61
2022/03/06 05:24:55;;;;;;;14.35;10.50;;;;;;;;;;5092141;28;20268;-61
2022/03/06 05:27:20;;;;;;;15.27;10.65;;;;;;;;;;5087908;28;20273;-62
2022/03/06 05:29:46;;;;;;;15.40;11.60;;;;;;;;;;5102073;28;20168;-62
2022/03/06 05:32:11;;;;;;;16.50;12.73;;;;;;;;;;5101497;28;20203;-61
2022/03/06 05:34:36;;;;;;;14.15;11.25;;;;;;;;;;5102312;28;20262;-61
2022/03/06 05:37:02;;;;;;;14.38;10.57;;;;;;;;;;5097083;28;20210;-61
2022/03/06 05:39:27;;;;;;;13.10;10.40;;;;;;;;;;5098859;28;21067;-61
2022/03/06 05:41:52;;;;;;;12.95;10.43;;;;;;;;;;5096615;28;20172;-61
2022/03/06 05:44:18;;;;;;;14.25;10.68;;;;;;;;;;5098357;28;20212;-61
2022/03/06 05:46:43;;;;;;;16.23;12.30;;;;;;;;;;5089011;28;20187;-61
2022/03/06 05:49:12;;;;;;;14.75;10.68;;;;;;;;;;5090844;28;20248;-61
2022/03/06 05:51:41;;;;;;;16.95;12.32;;;;;;;;;;5106798;28;20287;-61
2022/03/06 05:54:07;;;;;;;15.50;11.45;;;;;;;;;;5102108;28;20203;-61
2022/03/06 05:56:33;;;;;;;16.30;11.05;;;;;;;;;;5078643;28;20200;-61
2022/03/06 05:58:58;;;;;;;17.75;13.02;;;;;;;;;;5076981;28;20184;-60
2022/03/06 06:01:23;;;;;;;18.92;12.65;;;;;;;;;;5081447;28;20176;-61
2022/03/06 06:03:49;;;;;;;22.67;13.82;;;;;;;;;;5099957;28;20184;-61
2022/03/06 06:06:14;;;;;;;18.15;13.50;;;;;;;;;;5095078;28;20570;-61
2022/03/06 06:08:40;;;;;;;24.70;14.82;;;;;;;;;;5089109;28;20183;-61
2022/03/06 06:17:10;;;;;;;21.40;14.23;;;;;;;;;;5087132;28;20232;-63
2022/03/06 06:19:36;;;;;;;22.25;15.20;;;;;;;;;;5076647;28;21030;-61
2022/03/06 06:22:01;;;;;;;21.65;14.98;;;;;;;;;;5078593;28;20267;-61
2022/03/06 06:24:26;;;;;;;22.75;14.43;;;;;;;;;;5104717;28;20178;-61
2022/03/06 06:26:54;;;;;;;24.25;15.77;;;;;;;;;;5099016;28;20186;-61
2022/03/06 06:29:19;;;;;;;27.55;16.65;;;;;;;;;;5093201;28;20575;-61
2022/03/06 06:31:45;;;;;;;22.67;14.50;;;;;;;;;;5091903;28;20710;-61
2022/03/06 06:34:10;;;;;;;22.33;16.00;;;;;;;;;;5098292;28;20168;-61
2022/03/06 06:36:35;;;;;;;25.17;16.55;;;;;;;;;;5096626;28;20825;-61
2022/03/06 06:39:01;;;;;;;25.00;16.45;;;;;;;;;;5097043;28;20206;-61
2022/03/06 06:41:26;;;;;;;25.58;17.15;;;;;;;;;;5096001;28;20199;-61
2022/03/06 06:43:51;;;;;;;26.08;16.67;;;;;;;;;;5100170;28;20207;-61
2022/03/06 06:46:17;;;;;;;25.50;17.20;;;;;;;;;;5099863;28;20610;-61
2022/03/06 06:48:42;;;;;;;27.90;17.55;;;;;;;;;;5103843;28;20184;-61
2022/03/06 06:51:07;;;;;;;28.20;18.48;;;;;;;;;;5098637;28;20650;-61
2022/03/06 06:53:33;;;;;;;25.38;17.02;;;;;;;;;;5098314;28;20168;-61
2022/03/06 06:55:58;;;;;;;24.38;16.60;;;;;;;;;;5097056;28;20237;-61
2022/03/06 06:58:23;;;;;;;27.67;17.55;;;;;;;;;;5092288;28;20201;-61
2022/03/06 07:00:49;;;;;;;26.65;18.15;;;;;;;;;;5079359;28;20188;-62
2022/03/06 07:03:15;;;;;;;32.08;18.42;;;;;;;;;;5081345;28;20176;-61
2022/03/06 07:05:40;;;;;;;25.90;16.88;;;;;;;;;;5097996;28;20545;-61
2022/03/06 07:08:06;;;;;;;27.25;18.35;;;;;;;;;;5096988;28;20179;-61
2022/03/06 07:10:31;;;;;;;26.88;17.52;;;;;;;;;;5104040;28;20180;-62
2022/03/06 07:12:58;;;;;;;31.30;18.55;;;;;;;;;;5102297;28;20727;-61
2022/03/06 07:15:29;;;;;;;27.02;18.42;;;;;;;;;;5101997;28;20183;-61
2022/03/06 07:18:01;;;;;;;42.08;21.92;;;;;;;;;;5100569;28;20170;-61
2022/03/06 07:20:27;;;;;;;40.30;21.80;;;;;;;;;;5098514;28;20204;-61
2022/03/06 07:22:52;;;;;;;25.20;16.08;;;;;;;;;;5080092;28;20930;-61
2022/03/06 07:25:18;;;;;;;29.17;18.27;;;;;;;;;;5082591;28;20181;-61
2022/03/06 07:27:43;;;;;;;27.52;17.80;;;;;;;;;;5096383;28;20309;-61
2022/03/06 07:30:09;;;;;;;28.13;17.83;;;;;;;;;;5109972;28;20179;-61
2022/03/06 07:32:39;;;;;;;25.35;17.27;;;;;;;;;;5091186;28;20221;-61
2022/03/06 07:35:05;;;;;;;25.48;17.17;;;;;;;;;;5101895;28;20578;-61
2022/03/06 07:37:30;;;;;;;31.88;19.27;;;;;;;;;;5098706;28;20172;-61
2022/03/06 07:39:55;;;;;;;28.15;19.48;;;;;;;;;;5100321;28;20242;-61
2022/03/06 07:42:21;;;;;;;32.10;19.17;;;;;;;;;;5078981;28;20180;-61
2022/03/06 07:44:46;;;;;;;26.83;17.98;;;;;;;;;;5080056;28;20176;-61
2022/03/06 07:47:11;;;;;;;28.48;18.98;;;;;;;;;;5090976;28;20180;-61
2022/03/06 07:49:37;;;;;;;27.08;18.02;;;;;;;;;;5098389;28;20208;-61
2022/03/06 07:52:02;;;;;;;24.35;16.67;;;;;;;;;;5100720;28;20223;-61
2022/03/06 07:54:28;;;;;;;24.50;16.80;;;;;;;;;;5101027;28;20180;-61
2022/03/06 07:56:53;;;;;;;25.83;18.02;;;;;;;;;;5105583;28;20176;-61
2022/03/06 07:59:21;;;;;;;35.38;19.48;;;;;;;;;;5095789;28;20331;-61
2022/03/06 08:01:46;;;;;;;25.65;17.17;;;;;;;;;;5088415;28;20180;-61
2022/03/06 08:04:11;;;;;;;30.83;18.52;;;;;;;;;;5078214;28;20261;-62
2022/03/06 08:06:37;;;;;;;31.23;20.00;;;;;;;;;;5100115;28;20265;-62
2022/03/06 08:09:04;;;;;;;25.40;16.42;;;;;;;;;;5098888;28;20731;-61
2022/03/06 08:11:30;;;;;;;20.58;13.32;;;;;;;;;;5103719;28;20193;-61
2022/03/06 08:13:55;;;;;;;21.17;14.45;;;;;;;;;;5093445;28;20173;-61
2022/03/06 08:16:20;;;;;;;23.35;15.38;;;;;;;;;;5104787;28;20177;-61
2022/03/06 08:18:45;;;;;;;20.63;14.27;;;;;;;;;;5093421;28;20184;-61
2022/03/06 08:21:11;;;;;;;20.48;13.40;;;;;;;;;;5101124;28;20184;-62
2022/03/06 08:23:36;;;;;;;20.05;14.02;;;;;;;;;;5093896;28;20235;-62
2022/03/06 08:26:01;;;;;;;21.35;14.25;;;;;;;;;;5097215;28;20768;-61
2022/03/06 08:28:27;;;;;;;25.45;16.30;;;;;;;;;;5101811;28;20175;-61
2022/03/06 08:30:52;;;;;;;20.50;14.68;;;;;;;;;;5102243;28;20168;-61
2022/03/06 08:33:17;;;;;;;31.13;19.17;;;;;;;;;;5102226;28;20195;-62
2022/03/06 08:35:43;;;;;;;26.98;18.00;;;;;;;;;;5094435;28;20176;-61
2022/03/06 08:38:08;;;;;;;28.85;18.85;;;;;;;;;;5096443;28;20178;-61
2022/03/06 08:40:33;;;;;;;25.10;17.33;;;;;;;;;;5106864;28;20234;-62
2022/03/06 08:42:58;;;;;;;33.47;22.35;;;;;;;;;;5098485;28;20219;-61
2022/03/06 08:45:24;;;;;;;28.65;17.83;;;;;;;;;;5080202;28;20184;-61
2022/03/06 08:47:50;;;;;;;33.67;20.52;;;;;;;;;;5078535;28;20676;-61
2022/03/06 08:50:15;;;;;;;30.60;20.55;;;;;;;;;;5097548;28;20203;-61
2022/03/06 08:52:40;;;;;;;32.10;20.60;;;;;;;;;;5093562;28;21071;-60
2022/03/06 08:55:06;;;;;;;28.83;19.30;;;;;;;;;;5091940;28;20180;-61
2022/03/06 08:57:31;;;;;;;28.45;17.52;;;;;;;;;;5095266;28;20208;-61
2022/03/06 08:59:56;;;;;;;31.40;20.10;;;;;;;;;;5097902;28;20172;-61
2022/03/06 09:02:21;;;;;;;40.53;23.65;;;;;;;;;;5096028;28;20175;-61
2022/03/06 09:04:47;;;;;;;22.63;14.20;;;;;;;;;;5104975;28;20386;-60
2022/03/06 09:07:12;;;;;;;25.60;17.20;;;;;;;;;;5097486;28;20291;-61
2022/03/06 09:09:38;;;;;;;19.80;13.63;;;;;;;;;;5098851;28;20180;-61
2022/03/06 09:12:04;;;;;;;24.00;15.57;;;;;;;;;;5094008;28;20191;-61
2022/03/06 09:14:29;;;;;;;26.67;16.65;;;;;;;;;;5099366;28;20635;-60
2022/03/06 09:16:54;;;;;;;27.10;18.58;;;;;;;;;;5095890;28;20191;-60
2022/03/06 09:19:19;;;;;;;20.33;15.32;;;;;;;;;;5095026;28;20176;-61
2022/03/06 09:21:46;;;;;;;28.67;18.17;;;;;;;;;;5091904;28;20178;-61
2022/03/06 09:24:11;;;;;;;24.83;17.10;;;;;;;;;;5100544;28;20567;-61
2022/03/06 09:26:37;;;;;;;22.60;15.13;;;;;;;;;;5100201;28;20263;-61
2022/03/06 09:29:02;;;;;;;23.13;16.45;;;;;;;;;;5097507;28;20244;-60
2022/03/06 09:31:28;;;;;;;20.85;15.70;;;;;;;;;;5100236;28;20196;-61
2022/03/06 09:33:53;;;;;;;26.90;16.58;;;;;;;;;;5100959;28;20171;-61
2022/03/06 09:36:19;;;;;;;19.90;13.98;;;;;;;;;;5107874;28;20171;-61
2022/03/06 09:38:44;;;;;;;22.35;13.68;;;;;;;;;;5094880;28;20951;-61
2022/03/06 09:41:14;;;;;;;24.35;15.50;;;;;;;;;;5101537;28;20184;-61
2022/03/06 09:43:40;;;;;;;24.05;14.50;;;;;;;;;;5100629;28;20199;-61
2022/03/06 09:46:06;;;;;;;22.83;14.57;;;;;;;;;;5105058;28;20176;-60
2022/03/06 09:48:32;;;;;;;20.73;13.68;;;;;;;;;;5077471;28;20210;-61
2022/03/06 09:50:57;;;;;;;16.30;11.60;;;;;;;;;;5077514;28;20291;-60
2022/03/06 09:53:23;;;;;;;17.50;12.25;;;;;;;;;;5087296;28;20203;-60
2022/03/06 09:55:48;;;;;;;21.05;13.25;;;;;;;;;;5090401;28;20279;-61
2022/03/06 09:58:14;;;;;;;24.45;16.00;;;;;;;;;;5091365;28;20176;-61
2022/03/06 10:00:39;;;;;;;27.33;15.32;;;;;;;;;;5103375;28;20180;-60
2022/03/06 10:03:05;;;;;;;25.52;16.17;;;;;;;;;;5103811;28;20180;-60
2022/03/06 10:05:30;;;;;;;19.65;13.98;;;;;;;;;;5101209;28;20176;-62
2022/03/06 10:08:15;;;;;;;20.83;12.75;;;;;;;;;;5094253;28;20180;-62
2022/03/06 10:10:40;;;;;;;29.65;17.73;;;;;;;;;;5096248;28;20203;-60
2022/03/06 10:13:06;;;;;;;30.85;18.67;;;;;;;;;;5098046;28;20278;-62
2022/03/06 10:15:32;;;;;;;58.13;32.03;;;;;;;;;;5106301;28;20503;-60
2022/03/06 10:18:00;;;;;;;43.53;25.48;;;;;;;;;;5099370;28;20923;-60
2022/03/06 10:20:28;;;;;;;35.65;22.77;;;;;;;;;;5097270;28;20645;-59
2022/03/06 10:22:53;;;;;;;17.38;12.30;;;;;;;;;;5095272;28;20627;-61
2022/03/06 10:25:20;;;;;;;15.52;11.70;;;;;;;;;;5101064;28;20473;-60
2022/03/06 10:27:57;;;;;;;14.45;11.23;;;;;;;;;;5091459;28;20225;-60
2022/03/06 10:30:22;;;;;;;14.65;10.82;;;;;;;;;;5079801;28;20172;-60
2022/03/06 10:32:47;;;;;;;17.23;11.77;;;;;;;;;;5077796;28;20199;-60
2022/03/06 10:35:13;;;;;;;16.13;10.60;;;;;;;;;;5088291;28;20255;-60
2022/03/06 10:37:38;;;;;;;20.08;11.90;;;;;;;;;;5106232;28;20180;-63
2022/03/06 10:40:04;;;;;;;18.13;13.80;;;;;;;;;;5101376;28;20191;-61
2022/03/06 10:42:29;;;;;;;14.88;10.82;;;;;;;;;;5102050;28;20180;-60
2022/03/06 10:44:54;;;;;;;14.48;11.30;;;;;;;;;;5094388;28;20973;-60
2022/03/06 10:47:20;;;;;;;14.65;11.45;;;;;;;;;;5101502;28;20173;-61
2022/03/06 10:50:02;;;;;;;14.43;11.85;;;;;;;;;;5092786;28;20207;-61
2022/03/06 10:52:28;;;;;;;14.85;11.38;;;;;;;;;;5099440;28;20227;-61
2022/03/06 10:54:54;;;;;;;14.63;11.55;;;;;;;;;;5101493;28;20259;-61
2022/03/06 10:57:20;;;;;;;15.63;11.80;;;;;;;;;;5104746;28;20188;-61
2022/03/06 10:59:47;;;;;;;15.75;12.35;;;;;;;;;;5107562;28;20180;-62
2022/03/06 11:02:13;;;;;;;21.17;14.75;;;;;;;;;;5093402;28;20176;-59
2022/03/06 11:04:39;;;;;;;27.42;19.33;;;;;;;;;;5098970;28;20176;-60
2022/03/06 11:07:05;;;;;;;16.27;11.40;;;;;;;;;;5100112;28;20184;-59
2022/03/06 11:09:30;;;;;;;13.43;10.70;;;;;;;;;;5095249;28;20635;-59
2022/03/06 11:11:56;;;;;;;23.75;13.60;;;;;;;;;;5083723;28;20196;-60
2022/03/06 11:14:22;;;;;;;13.15;8.75;;;;;;;;;;5080014;28;20172;-60
2022/03/06 11:16:47;;;;;;;12.13;9.20;;;;;;;;;;5083606;28;20184;-60
2022/03/06 11:19:12;;;;;;;13.85;11.27;;;;;;;;;;5102544;28;20237;-60
2022/03/06 11:21:42;;;;;;;17.45;13.98;;;;;;;;;;5093082;28;20180;-60
2022/03/06 11:30:24;;;;;;;15.85;12.07;;;;;;;;;;5071954;28;20176;-60
2022/03/06 11:33:09;;;;;;;14.75;11.60;;;;;;;;;;5060603;28;20205;-60
2022/03/06 11:35:44;;;;;;;13.65;11.55;;;;;;;;;;5076154;28;20211;-60
2022/03/06 11:38:13;;;;;;;18.08;13.20;;;;;;;;;;5080263;28;20176;-60
2022/03/06 11:40:54;;;;;;;15.35;13.00;;;;;;;;;;5069270;28;20299;-60
2022/03/06 11:43:28;;;;;;;22.52;15.70;;;;;;;;;;5077681;28;20268;-60
2022/03/06 11:46:01;;;;;;;24.27;15.48;;;;;;;;;;5074852;28;20607;-60
2022/03/06 11:48:47;;;;;;;15.90;11.30;;;;;;;;;;5083982;28;20192;-60
2022/03/06 11:51:18;;;;;;;14.95;11.25;;;;;;;;;;5077908;28;20267;-61
2022/03/06 11:53:46;;;;;;;15.30;11.85;;;;;;;;;;5062695;28;20284;-61
2022/03/06 11:56:30;;;;;;;18.98;13.93;;;;;;;;;;5075957;28;20196;-61
2022/03/06 11:58:55;;;;;;;27.77;21.02;;;;;;;;;;5098974;28;20180;-61
2022/03/06 12:01:33;;;;;;;20.77;16.15;;;;;;;;;;5099360;28;20172;-61
2022/03/06 12:04:12;;;;;;;33.75;21.90;;;;;;;;;;5107669;28;20167;-61
2022/03/06 12:06:39;;;;;;;23.63;15.13;;;;;;;;;;5101406;28;20221;-61
2022/03/06 12:09:14;;;;;;;18.00;13.65;;;;;;;;;;5103781;28;20294;-61
2022/03/06 12:11:40;;;;;;;23.70;16.65;;;;;;;;;;5104401;28;20215;-61
2022/03/06 12:14:30;;;;;;;20.63;14.82;;;;;;;;;;5097738;28;20183;-61
2022/03/06 12:17:02;;;;;;;20.73;14.00;;;;;;;;;;5092860;28;20187;-61
2022/03/06 12:19:27;;;;;;;30.15;16.70;;;;;;;;;;5100438;28;20190;-61
2022/03/06 12:21:52;;;;;;;37.30;21.10;;;;;;;;;;5099335;28;20180;-60
2022/03/06 12:24:28;;;;;;;31.40;17.50;;;;;;;;;;5098576;28;20259;-60
2022/03/06 12:26:53;;;;;;;17.23;13.13;;;;;;;;;;5097773;28;20176;-60
2022/03/06 12:29:37;;;;;;;18.35;13.70;;;;;;;;;;5100562;28;20415;-61
2022/03/06 12:32:21;;;;;;;19.42;13.82;;;;;;;;;;5095425;28;20195;-61
2022/03/06 12:34:46;;;;;;;19.08;13.88;;;;;;;;;;5105502;28;20179;-61
2022/03/06 12:37:12;;;;;;;19.30;14.38;;;;;;;;;;5077554;28;20180;-60
2022/03/06 12:39:37;;;;;;;22.23;15.70;;;;;;;;;;5079653;28;20192;-61
2022/03/06 12:42:03;;;;;;;19.70;15.52;;;;;;;;;;5091249;28;20263;-60
2022/03/06 12:44:30;;;;;;;17.75;13.45;;;;;;;;;;5095071;28;20180;-61
2022/03/06 12:46:56;;;;;;;23.88;16.30;;;;;;;;;;5093115;28;20184;-60
2022/03/06 12:49:23;;;;;;;20.83;15.55;;;;;;;;;;5094795;28;20207;-61
2022/03/06 12:51:50;;;;;;;21.85;16.08;;;;;;;;;;5103654;28;20275;-60
2022/03/06 12:54:17;;;;;;;16.95;13.30;;;;;;;;;;5100645;28;20215;-61
2022/03/06 12:56:43;;;;;;;17.75;13.00;;;;;;;;;;5084918;28;20172;-61
2022/03/06 12:59:10;;;;;;;19.08;12.73;;;;;;;;;;5077879;28;20654;-61
2022/03/06 13:01:37;;;;;;;14.65;11.57;;;;;;;;;;5099735;28;20179;-61
2022/03/06 13:04:03;;;;;;;19.38;12.98;;;;;;;;;;5106271;28;20238;-61
2022/03/06 13:06:29;;;;;;;15.77;11.68;;;;;;;;;;5095362;28;20274;-60
2022/03/06 13:08:55;;;;;;;11.18;9.90;;;;;;;;;;5098933;28;20251;-61
2022/03/06 13:11:20;;;;;;;11.23;9.80;;;;;;;;;;5106591;28;20348;-60
2022/03/06 13:13:45;;;;;;;10.65;9.38;;;;;;;;;;5102484;28;20179;-60
2022/03/06 13:16:11;;;;;;;9.07;7.82;;;;;;;;;;5100117;28;20176;-60
2022/03/06 13:18:37;;;;;;;11.07;9.15;;;;;;;;;;5094252;28;20180;-60
2022/03/06 13:21:13;;;;;;;13.60;8.80;;;;;;;;;;5098135;28;20172;-60
2022/03/06 13:23:39;;;;;;;16.40;11.80;;;;;;;;;;5096216;28;20259;-60
2022/03/06 13:26:04;;;;;;;9.57;8.05;;;;;;;;;;5088704;28;20303;-60
2022/03/06 13:28:29;;;;;;;10.73;8.68;;;;;;;;;;5093675;28;20179;-60
2022/03/06 13:30:58;;;;;;;10.07;7.95;;;;;;;;;;5100099;28;20675;-60
2022/03/06 13:33:24;;;;;;;11.77;10.02;;;;;;;;;;5101569;28;20245;-60
2022/03/06 13:35:49;;;;;;;11.40;9.95;;;;;;;;;;5095262;28;20207;-60
2022/03/06 13:38:14;;;;;;;14.25;12.23;;;;;;;;;;5089361;28;20862;-61
2022/03/06 13:40:42;;;;;;;52.15;37.10;;;;;;;;;;5076646;28;20242;-60
2022/03/06 13:43:07;;;;;;;25.33;19.65;;;;;;;;;;5098272;28;20806;-60
2022/03/06 13:45:34;;;;;;;24.02;17.90;;;;;;;;;;5097207;28;20207;-60
2022/03/06 13:48:01;;;;;;;24.45;18.92;;;;;;;;;;5094914;28;20219;-60
2022/03/06 13:50:28;;;;;;;20.52;16.27;;;;;;;;;;5096396;28;20239;-60
2022/03/06 13:52:54;;;;;;;12.07;9.45;;;;;;;;;;5097373;28;20214;-60
2022/03/06 13:55:23;;;;;;;8.38;7.53;;;;;;;;;;5091160;28;20259;-61
2022/03/06 13:57:59;;;;;;;8.73;7.22;;;;;;;;;;5095030;28;20263;-61
2022/03/06 14:00:25;;;;;;;7.32;6.63;;;;;;;;;;5097828;28;20774;-61
2022/03/06 14:03:01;;;;;;;5.70;5.20;;;;;;;;;;5095812;28;20180;-61
2022/03/06 14:05:36;;;;;;;4.88;4.47;;;;;;;;;;5099380;28;20184;-60
2022/03/06 14:08:14;;;;;;;5.45;4.93;;;;;;;;;;5096735;28;20237;-60
2022/03/06 14:10:39;;;;;;;7.45;6.60;;;;;;;;;;5103472;28;20179;-60
2022/03/06 14:13:18;;;;;;;7.30;6.60;;;;;;;;;;5087678;28;20287;-61
2022/03/06 14:15:43;;;;;;;10.45;7.28;;;;;;;;;;5098536;28;20557;-61
2022/03/06 14:18:09;;;;;;;9.10;7.57;;;;;;;;;;5098305;28;20180;-61
2022/03/06 14:20:44;;;;;;;23.33;13.55;;;;;;;;;;5088405;28;20172;-60
2022/03/06 14:23:09;;;;;;;19.30;13.63;;;;;;;;;;5095782;28;20182;-61
2022/03/06 14:25:34;;;;;;;17.08;13.95;;;;;;;;;;5098726;28;20167;-61
2022/03/06 14:27:59;;;;;;;20.13;15.38;;;;;;;;;;5101882;28;20547;-61
2022/03/06 14:30:25;;;;;;;14.00;11.15;;;;;;;;;;5097697;28;20184;-61
2022/03/06 14:32:50;;;;;;;33.28;25.85;;;;;;;;;;5100098;28;20191;-61
2022/03/06 14:35:16;;;;;;;35.63;25.33;;;;;;;;;;5096778;28;20283;-61
2022/03/06 14:37:41;;;;;;;44.45;32.20;;;;;;;;;;5095086;28;20181;-62
2022/03/06 14:40:06;;;;;;;48.63;30.45;;;;;;;;;;5096156;28;20712;-61
2022/03/06 14:42:32;;;;;;;26.17;18.63;;;;;;;;;;5075740;28;20224;-61
2022/03/06 14:44:57;;;;;;;22.02;16.30;;;;;;;;;;5076750;28;20183;-61
2022/03/06 14:47:22;;;;;;;87.88;55.67;;;;;;;;;;5081306;28;20188;-61
2022/03/06 14:49:48;;;;;;;98.53;61.08;;;;;;;;;;5099561;28;20204;-61
2022/03/06 14:52:13;;;;;;;71.03;45.30;;;;;;;;;;5094635;28;20203;-61